Joe Foss Field Airport
KFSD : now visible

Airfield :











YOU CAN JOIN US ON...

 
LOGIN :

Register | Disclaimer

   EN    FR    IT 

 









Legend :    VFR   Marginal VFR   IFR   Intensive IFR   Very Intensive IFR
Visi :
Ceiling :
>= 8 km
>= 3000ft
5 to 8 km
1000 to 3000 ft
1500m to 5 km
500 to 1000 ft
800 to 1500m
200 to 500 ft
< 800m
< 200 ft
Symbols :   Thunderstorms  Fog  Heavy snow  Heavy precipitations  Wind > 20 kt






- Airport Elevation : 1429 ft
- IATA code : FSD


KFSD - Joe Foss Field

CURRENT METAR :
  • 212356Z 08010KT 10SM OVC014 04/01 A3011 RMK AO2 SLP209 60000 T00390006 10050 20017 51003

EXPIRED METARs :
  • 212256Z 07008KT 10SM BKN014 BKN060 BKN120 04/01 A3010 RMK AO2 SLP206 T00440006
  • 212243Z 08009KT 10SM BKN014 BKN060 BKN110 04/01 A3010 RMK AO2 T00390006
  • 212156Z 11010KT 10SM SCT019 SCT060 BKN110 BKN250 05/01 A3011 RMK AO2 SLP207 T00500006

TAF KFSD
Valid from the 22 at 00:00 until the 23 at 00:00 UTC


212333Z 2200/2224 07009KT P6SM BKN015 OVC060
FM220700 08012KT P6SM OVC022
FM220900 08013G18KT P6SM VCSH OVC014
FM221100 05013G20KT 4SM -DZSN BR OVC008
PROB30 2211/2214 4SM -FZDZSN BR
FM222000 01012G21KT 6SM -RASN BR OVC006
KZMP FIR / North America



MET'MAP, your aeronautical weather chart ! - Copyright ORBIFLY December 2007 - Disclaimer

ORBIFLY MET'MAP TEAM :

Programming & Development : Alexandra Zaïnal
Concept & original design : Baudouin d'Aumeries
Assistance for programming : Marc-Olivier Méhu
Technical & hardware support : Manuel Goepfert

Contact : metmap@orbifly.com




SOURCES & CREDITS :

   NOAA       Earth
Advisory